sensor_id;sensor_type;location;lat;lon;timestamp;P1;durP1;ratioP1;P2;durP2;ratioP2
48161;SDS011;33950;48.154;16.316;2022-07-18T00:02:23;3.78;;;1.40;;
48161;SDS011;33950;48.154;16.316;2022-07-18T00:04:49;9.75;;;1.65;;
48161;SDS011;33950;48.154;16.316;2022-07-18T00:07:16;3.22;;;1.15;;
48161;SDS011;33950;48.154;16.316;2022-07-18T00:09:42;2.67;;;1.08;;
48161;SDS011;33950;48.154;16.316;2022-07-18T00:12:09;4.60;;;1.52;;
48161;SDS011;33950;48.154;16.316;2022-07-18T00:14:35;3.72;;;1.40;;
48161;SDS011;33950;48.154;16.316;2022-07-18T00:17:02;5.80;;;1.58;;
48161;SDS011;33950;48.154;16.316;2022-07-18T00:19:29;2.47;;;1.17;;
48161;SDS011;33950;48.154;16.316;2022-07-18T00:21:55;5.40;;;1.40;;
48161;SDS011;33950;48.154;16.316;2022-07-18T00:24:22;4.20;;;0.70;;
48161;SDS011;33950;48.154;16.316;2022-07-18T00:26:48;12.50;;;1.77;;
48161;SDS011;33950;48.154;16.316;2022-07-18T00:29:14;4.18;;;1.08;;
48161;SDS011;33950;48.154;16.316;2022-07-18T00:31:40;2.58;;;0.93;;
48161;SDS011;33950;48.154;16.316;2022-07-18T00:34:05;3.78;;;1.00;;
48161;SDS011;33950;48.154;16.316;2022-07-18T00:36:31;3.50;;;0.80;;
48161;SDS011;33950;48.154;16.316;2022-07-18T00:38:57;4.10;;;1.10;;
48161;SDS011;33950;48.154;16.316;2022-07-18T00:41:25;3.45;;;1.30;;
48161;SDS011;33950;48.154;16.316;2022-07-18T00:43:51;2.35;;;0.93;;
48161;SDS011;33950;48.154;16.316;2022-07-18T00:46:19;6.75;;;1.30;;
48161;SDS011;33950;48.154;16.316;2022-07-18T00:48:46;11.60;;;1.25;;
48161;SDS011;33950;48.154;16.316;2022-07-18T00:51:12;6.05;;;1.10;;
48161;SDS011;33950;48.154;16.316;2022-07-18T00:53:38;2.45;;;1.08;;
48161;SDS011;33950;48.154;16.316;2022-07-18T00:56:04;3.85;;;1.13;;
48161;SDS011;33950;48.154;16.316;2022-07-18T00:58:32;3.90;;;1.58;;
48161;SDS011;33950;48.154;16.316;2022-07-18T01:00:58;9.27;;;1.60;;
48161;SDS011;33950;48.154;16.316;2022-07-18T01:03:42;1.90;;;1.00;;
48161;SDS011;33950;48.154;16.316;2022-07-18T01:06:08;2.88;;;0.85;;
48161;SDS011;33950;48.154;16.316;2022-07-18T01:08:34;3.58;;;0.80;;
48161;SDS011;33950;48.154;16.316;2022-07-18T01:11:00;6.68;;;1.02;;
48161;SDS011;33950;48.154;16.316;2022-07-18T01:13:26;2.35;;;0.65;;
48161;SDS011;33950;48.154;16.316;2022-07-18T01:15:54;2.47;;;0.88;;
48161;SDS011;33950;48.154;16.316;2022-07-18T01:18:19;4.28;;;0.88;;
48161;SDS011;33950;48.154;16.316;2022-07-18T01:20:47;3.80;;;1.20;;
48161;SDS011;33950;48.154;16.316;2022-07-18T01:23:12;3.60;;;0.90;;
48161;SDS011;33950;48.154;16.316;2022-07-18T01:25:38;8.63;;;1.20;;
48161;SDS011;33950;48.154;16.316;2022-07-18T01:30:29;8.50;;;1.15;;
48161;SDS011;33950;48.154;16.316;2022-07-18T01:32:56;3.95;;;1.00;;
48161;SDS011;33950;48.154;16.316;2022-07-18T01:35:23;6.45;;;1.10;;
48161;SDS011;33950;48.154;16.316;2022-07-18T01:37:51;3.03;;;1.33;;
48161;SDS011;33950;48.154;16.316;2022-07-18T01:40:18;6.15;;;1.65;;
48161;SDS011;33950;48.154;16.316;2022-07-18T01:42:43;5.38;;;1.10;;
48161;SDS011;33950;48.154;16.316;2022-07-18T01:45:09;3.10;;;1.30;;
48161;SDS011;33950;48.154;16.316;2022-07-18T01:47:35;5.57;;;1.42;;
48161;SDS011;33950;48.154;16.316;2022-07-18T01:50:01;4.68;;;1.25;;
48161;SDS011;33950;48.154;16.316;2022-07-18T01:52:27;7.68;;;1.65;;
48161;SDS011;33950;48.154;16.316;2022-07-18T01:54:54;4.30;;;1.02;;
48161;SDS011;33950;48.154;16.316;2022-07-18T01:57:20;4.55;;;1.42;;
48161;SDS011;33950;48.154;16.316;2022-07-18T01:59:46;4.00;;;1.45;;
48161;SDS011;33950;48.154;16.316;2022-07-18T02:02:12;4.85;;;1.30;;
48161;SDS011;33950;48.154;16.316;2022-07-18T02:04:38;4.93;;;1.45;;
48161;SDS011;33950;48.154;16.316;2022-07-18T02:07:22;5.00;;;1.67;;
48161;SDS011;33950;48.154;16.316;2022-07-18T02:09:48;3.72;;;1.10;;
48161;SDS011;33950;48.154;16.316;2022-07-18T02:12:15;7.50;;;1.25;;
48161;SDS011;33950;48.154;16.316;2022-07-18T02:14:40;5.10;;;1.55;;
48161;SDS011;33950;48.154;16.316;2022-07-18T02:17:06;3.78;;;1.00;;
48161;SDS011;33950;48.154;16.316;2022-07-18T02:19:32;1.58;;;0.80;;
48161;SDS011;33950;48.154;16.316;2022-07-18T02:21:58;1.80;;;0.88;;
48161;SDS011;33950;48.154;16.316;2022-07-18T02:24:24;2.70;;;0.95;;
48161;SDS011;33950;48.154;16.316;2022-07-18T02:26:49;4.15;;;0.93;;
48161;SDS011;33950;48.154;16.316;2022-07-18T02:29:17;3.75;;;1.25;;
48161;SDS011;33950;48.154;16.316;2022-07-18T02:31:42;1.52;;;1.08;;
48161;SDS011;33950;48.154;16.316;2022-07-18T02:34:08;4.03;;;1.15;;
48161;SDS011;33950;48.154;16.316;2022-07-18T02:36:36;5.28;;;1.00;;
48161;SDS011;33950;48.154;16.316;2022-07-18T02:39:03;2.28;;;1.40;;
48161;SDS011;33950;48.154;16.316;2022-07-18T02:41:29;7.60;;;1.42;;
48161;SDS011;33950;48.154;16.316;2022-07-18T02:43:54;3.17;;;1.20;;
48161;SDS011;33950;48.154;16.316;2022-07-18T02:46:22;4.55;;;1.40;;
48161;SDS011;33950;48.154;16.316;2022-07-18T02:48:47;4.15;;;1.42;;
48161;SDS011;33950;48.154;16.316;2022-07-18T02:51:13;4.30;;;1.10;;
48161;SDS011;33950;48.154;16.316;2022-07-18T02:53:39;4.60;;;1.50;;
48161;SDS011;33950;48.154;16.316;2022-07-18T02:56:05;4.68;;;1.35;;
48161;SDS011;33950;48.154;16.316;2022-07-18T02:58:31;3.40;;;1.25;;
48161;SDS011;33950;48.154;16.316;2022-07-18T03:00:57;6.05;;;1.40;;
48161;SDS011;33950;48.154;16.316;2022-07-18T03:03:24;1.92;;;1.35;;
48161;SDS011;33950;48.154;16.316;2022-07-18T03:05:50;5.10;;;1.65;;
48161;SDS011;33950;48.154;16.316;2022-07-18T03:08:16;5.97;;;1.50;;
48161;SDS011;33950;48.154;16.316;2022-07-18T03:10:42;5.60;;;1.30;;
48161;SDS011;33950;48.154;16.316;2022-07-18T03:13:08;5.60;;;1.70;;
48161;SDS011;33950;48.154;16.316;2022-07-18T03:15:35;3.85;;;1.08;;
48161;SDS011;33950;48.154;16.316;2022-07-18T03:18:01;3.58;;;1.42;;
48161;SDS011;33950;48.154;16.316;2022-07-18T03:20:28;1.98;;;1.17;;
48161;SDS011;33950;48.154;16.316;2022-07-18T03:22:54;2.65;;;1.10;;
48161;SDS011;33950;48.154;16.316;2022-07-18T03:25:20;5.95;;;1.63;;
48161;SDS011;33950;48.154;16.316;2022-07-18T03:27:46;2.50;;;0.80;;
48161;SDS011;33950;48.154;16.316;2022-07-18T03:30:12;3.92;;;1.42;;
48161;SDS011;33950;48.154;16.316;2022-07-18T03:32:38;1.80;;;1.10;;
48161;SDS011;33950;48.154;16.316;2022-07-18T03:35:04;2.58;;;1.52;;
48161;SDS011;33950;48.154;16.316;2022-07-18T03:37:32;5.75;;;1.75;;
48161;SDS011;33950;48.154;16.316;2022-07-18T03:39:58;1.60;;;1.23;;
48161;SDS011;33950;48.154;16.316;2022-07-18T03:42:24;2.72;;;1.10;;
48161;SDS011;33950;48.154;16.316;2022-07-18T03:44:49;10.25;;;1.92;;
48161;SDS011;33950;48.154;16.316;2022-07-18T03:47:15;8.45;;;1.67;;
48161;SDS011;33950;48.154;16.316;2022-07-18T03:49:41;4.32;;;1.20;;
48161;SDS011;33950;48.154;16.316;2022-07-18T03:52:07;1.88;;;1.17;;
48161;SDS011;33950;48.154;16.316;2022-07-18T03:54:34;1.52;;;1.17;;
48161;SDS011;33950;48.154;16.316;2022-07-18T03:57:00;2.95;;;1.40;;
48161;SDS011;33950;48.154;16.316;2022-07-18T03:59:26;2.45;;;1.50;;
48161;SDS011;33950;48.154;16.316;2022-07-18T04:01:51;5.65;;;1.23;;
48161;SDS011;33950;48.154;16.316;2022-07-18T04:04:17;9.98;;;2.08;;
48161;SDS011;33950;48.154;16.316;2022-07-18T04:06:43;10.52;;;1.80;;
48161;SDS011;33950;48.154;16.316;2022-07-18T04:09:09;4.32;;;1.25;;
48161;SDS011;33950;48.154;16.316;2022-07-18T04:11:36;7.57;;;1.58;;
48161;SDS011;33950;48.154;16.316;2022-07-18T04:14:01;13.18;;;2.33;;
48161;SDS011;33950;48.154;16.316;2022-07-18T04:16:27;7.70;;;1.65;;
48161;SDS011;33950;48.154;16.316;2022-07-18T04:18:53;6.68;;;1.63;;
48161;SDS011;33950;48.154;16.316;2022-07-18T04:21:19;4.28;;;1.45;;
48161;SDS011;33950;48.154;16.316;2022-07-18T04:23:45;4.07;;;1.42;;
48161;SDS011;33950;48.154;16.316;2022-07-18T04:26:11;2.03;;;0.90;;
48161;SDS011;33950;48.154;16.316;2022-07-18T04:28:38;4.63;;;1.10;;
48161;SDS011;33950;48.154;16.316;2022-07-18T04:31:04;2.92;;;1.15;;
48161;SDS011;33950;48.154;16.316;2022-07-18T04:33:30;4.45;;;1.60;;
48161;SDS011;33950;48.154;16.316;2022-07-18T04:35:56;3.95;;;1.70;;
48161;SDS011;33950;48.154;16.316;2022-07-18T04:38:21;4.72;;;1.08;;
48161;SDS011;33950;48.154;16.316;2022-07-18T04:40:47;5.63;;;1.65;;
48161;SDS011;33950;48.154;16.316;2022-07-18T04:43:13;3.70;;;1.38;;
48161;SDS011;33950;48.154;16.316;2022-07-18T04:45:41;9.73;;;1.85;;
48161;SDS011;33950;48.154;16.316;2022-07-18T04:48:07;6.05;;;2.25;;
48161;SDS011;33950;48.154;16.316;2022-07-18T04:50:33;13.35;;;3.95;;
48161;SDS011;33950;48.154;16.316;2022-07-18T04:52:59;8.75;;;4.00;;
48161;SDS011;33950;48.154;16.316;2022-07-18T04:55:25;15.73;;;4.70;;
48161;SDS011;33950;48.154;16.316;2022-07-18T04:57:51;11.48;;;4.13;;
48161;SDS011;33950;48.154;16.316;2022-07-18T05:00:19;13.60;;;3.38;;
48161;SDS011;33950;48.154;16.316;2022-07-18T05:02:48;8.65;;;3.00;;
48161;SDS011;33950;48.154;16.316;2022-07-18T05:05:15;12.80;;;3.15;;
48161;SDS011;33950;48.154;16.316;2022-07-18T05:07:42;10.40;;;3.60;;
48161;SDS011;33950;48.154;16.316;2022-07-18T05:10:10;6.38;;;3.28;;
48161;SDS011;33950;48.154;16.316;2022-07-18T05:12:37;8.20;;;3.22;;
48161;SDS011;33950;48.154;16.316;2022-07-18T05:15:05;8.40;;;3.47;;
48161;SDS011;33950;48.154;16.316;2022-07-18T05:17:31;8.65;;;2.80;;
48161;SDS011;33950;48.154;16.316;2022-07-18T05:19:59;18.38;;;3.35;;
48161;SDS011;33950;48.154;16.316;2022-07-18T05:22:25;13.82;;;3.08;;
48161;SDS011;33950;48.154;16.316;2022-07-18T05:24:50;7.03;;;1.75;;
48161;SDS011;33950;48.154;16.316;2022-07-18T05:27:17;7.22;;;2.30;;
48161;SDS011;33950;48.154;16.316;2022-07-18T05:29:43;6.72;;;2.25;;
48161;SDS011;33950;48.154;16.316;2022-07-18T05:32:09;3.17;;;1.63;;
48161;SDS011;33950;48.154;16.316;2022-07-18T05:34:36;7.75;;;2.00;;
48161;SDS011;33950;48.154;16.316;2022-07-18T05:37:03;6.82;;;1.85;;
48161;SDS011;33950;48.154;16.316;2022-07-18T05:39:29;7.68;;;2.15;;
48161;SDS011;33950;48.154;16.316;2022-07-18T05:41:55;6.43;;;1.92;;
48161;SDS011;33950;48.154;16.316;2022-07-18T05:44:20;10.88;;;1.98;;
48161;SDS011;33950;48.154;16.316;2022-07-18T05:46:46;3.63;;;1.55;;
48161;SDS011;33950;48.154;16.316;2022-07-18T05:49:12;6.65;;;2.13;;
48161;SDS011;33950;48.154;16.316;2022-07-18T05:51:38;11.50;;;2.95;;
48161;SDS011;33950;48.154;16.316;2022-07-18T05:54:05;4.20;;;1.80;;
48161;SDS011;33950;48.154;16.316;2022-07-18T05:56:31;12.85;;;2.47;;
48161;SDS011;33950;48.154;16.316;2022-07-18T05:58:57;8.27;;;2.63;;
48161;SDS011;33950;48.154;16.316;2022-07-18T06:01:23;3.65;;;1.42;;
48161;SDS011;33950;48.154;16.316;2022-07-18T06:03:49;6.25;;;2.15;;
48161;SDS011;33950;48.154;16.316;2022-07-18T06:06:14;7.75;;;1.85;;
48161;SDS011;33950;48.154;16.316;2022-07-18T06:08:40;16.52;;;2.20;;
48161;SDS011;33950;48.154;16.316;2022-07-18T06:11:08;7.55;;;2.10;;
48161;SDS011;33950;48.154;16.316;2022-07-18T06:13:34;10.65;;;2.30;;
48161;SDS011;33950;48.154;16.316;2022-07-18T06:16:01;6.47;;;2.05;;
48161;SDS011;33950;48.154;16.316;2022-07-18T06:18:27;7.18;;;1.77;;
48161;SDS011;33950;48.154;16.316;2022-07-18T06:20:53;13.65;;;2.38;;
48161;SDS011;33950;48.154;16.316;2022-07-18T06:23:19;12.63;;;1.88;;
48161;SDS011;33950;48.154;16.316;2022-07-18T06:25:45;10.65;;;2.78;;
48161;SDS011;33950;48.154;16.316;2022-07-18T06:28:12;12.75;;;2.25;;
48161;SDS011;33950;48.154;16.316;2022-07-18T06:30:38;9.23;;;2.05;;
48161;SDS011;33950;48.154;16.316;2022-07-18T06:33:03;11.70;;;2.10;;
48161;SDS011;33950;48.154;16.316;2022-07-18T06:35:31;37.45;;;3.05;;
48161;SDS011;33950;48.154;16.316;2022-07-18T06:37:57;5.32;;;1.77;;
48161;SDS011;33950;48.154;16.316;2022-07-18T06:40:22;7.25;;;2.13;;
48161;SDS011;33950;48.154;16.316;2022-07-18T06:42:50;14.57;;;2.55;;
48161;SDS011;33950;48.154;16.316;2022-07-18T06:45:17;17.00;;;2.35;;
48161;SDS011;33950;48.154;16.316;2022-07-18T06:47:43;6.03;;;2.10;;
48161;SDS011;33950;48.154;16.316;2022-07-18T06:50:10;11.63;;;2.20;;
48161;SDS011;33950;48.154;16.316;2022-07-18T06:52:37;10.88;;;2.50;;
48161;SDS011;33950;48.154;16.316;2022-07-18T06:55:04;4.75;;;2.30;;
48161;SDS011;33950;48.154;16.316;2022-07-18T06:57:30;21.13;;;3.28;;
48161;SDS011;33950;48.154;16.316;2022-07-18T06:59:56;13.68;;;2.40;;
48161;SDS011;33950;48.154;16.316;2022-07-18T07:02:23;6.50;;;2.33;;
48161;SDS011;33950;48.154;16.316;2022-07-18T07:04:49;9.50;;;1.70;;
48161;SDS011;33950;48.154;16.316;2022-07-18T07:07:15;4.90;;;1.33;;
48161;SDS011;33950;48.154;16.316;2022-07-18T07:09:41;6.10;;;1.73;;
48161;SDS011;33950;48.154;16.316;2022-07-18T07:12:06;7.60;;;2.60;;
48161;SDS011;33950;48.154;16.316;2022-07-18T07:14:32;11.98;;;2.30;;
48161;SDS011;33950;48.154;16.316;2022-07-18T07:16:58;8.55;;;2.10;;
48161;SDS011;33950;48.154;16.316;2022-07-18T07:19:25;11.57;;;2.00;;
48161;SDS011;33950;48.154;16.316;2022-07-18T07:21:51;11.00;;;2.10;;
48161;SDS011;33950;48.154;16.316;2022-07-18T07:24:16;11.07;;;2.00;;
48161;SDS011;33950;48.154;16.316;2022-07-18T07:26:42;15.65;;;3.20;;
48161;SDS011;33950;48.154;16.316;2022-07-18T07:29:08;12.30;;;2.17;;
48161;SDS011;33950;48.154;16.316;2022-07-18T07:31:34;5.55;;;2.00;;
48161;SDS011;33950;48.154;16.316;2022-07-18T07:33:59;9.45;;;2.10;;
48161;SDS011;33950;48.154;16.316;2022-07-18T07:36:27;10.88;;;2.55;;
48161;SDS011;33950;48.154;16.316;2022-07-18T07:38:52;10.70;;;2.83;;
48161;SDS011;33950;48.154;16.316;2022-07-18T07:41:19;14.57;;;4.22;;
48161;SDS011;33950;48.154;16.316;2022-07-18T07:43:45;19.13;;;3.80;;
48161;SDS011;33950;48.154;16.316;2022-07-18T07:46:10;10.60;;;2.97;;
48161;SDS011;33950;48.154;16.316;2022-07-18T07:48:37;8.50;;;2.83;;
48161;SDS011;33950;48.154;16.316;2022-07-18T07:51:02;16.00;;;3.08;;
48161;SDS011;33950;48.154;16.316;2022-07-18T07:53:30;11.05;;;2.08;;
48161;SDS011;33950;48.154;16.316;2022-07-18T07:55:56;9.48;;;2.55;;
48161;SDS011;33950;48.154;16.316;2022-07-18T07:58:22;6.10;;;1.77;;
48161;SDS011;33950;48.154;16.316;2022-07-18T08:00:48;9.80;;;2.05;;
48161;SDS011;33950;48.154;16.316;2022-07-18T08:03:13;5.75;;;1.48;;
48161;SDS011;33950;48.154;16.316;2022-07-18T08:05:43;6.70;;;1.50;;
48161;SDS011;33950;48.154;16.316;2022-07-18T08:08:11;11.20;;;1.67;;
48161;SDS011;33950;48.154;16.316;2022-07-18T08:10:39;5.80;;;1.70;;
48161;SDS011;33950;48.154;16.316;2022-07-18T08:13:05;12.98;;;2.05;;
48161;SDS011;33950;48.154;16.316;2022-07-18T08:15:31;12.77;;;2.10;;
48161;SDS011;33950;48.154;16.316;2022-07-18T08:17:56;13.85;;;2.97;;
48161;SDS011;33950;48.154;16.316;2022-07-18T08:20:22;8.02;;;1.60;;
48161;SDS011;33950;48.154;16.316;2022-07-18T08:22:53;9.98;;;1.52;;
48161;SDS011;33950;48.154;16.316;2022-07-18T08:25:19;7.60;;;1.20;;
48161;SDS011;33950;48.154;16.316;2022-07-18T08:27:47;6.72;;;1.08;;
48161;SDS011;33950;48.154;16.316;2022-07-18T08:30:13;9.02;;;1.40;;
48161;SDS011;33950;48.154;16.316;2022-07-18T08:32:39;9.25;;;3.00;;
48161;SDS011;33950;48.154;16.316;2022-07-18T08:35:05;5.57;;;1.48;;
48161;SDS011;33950;48.154;16.316;2022-07-18T08:37:31;8.77;;;1.20;;
48161;SDS011;33950;48.154;16.316;2022-07-18T08:39:57;7.07;;;1.23;;
48161;SDS011;33950;48.154;16.316;2022-07-18T08:42:23;5.30;;;1.95;;
48161;SDS011;33950;48.154;16.316;2022-07-18T08:44:53;8.85;;;2.30;;
48161;SDS011;33950;48.154;16.316;2022-07-18T08:47:20;3.08;;;1.60;;
48161;SDS011;33950;48.154;16.316;2022-07-18T08:49:47;5.80;;;2.17;;
48161;SDS011;33950;48.154;16.316;2022-07-18T08:52:13;10.98;;;1.48;;
48161;SDS011;33950;48.154;16.316;2022-07-18T08:54:40;5.50;;;1.48;;
48161;SDS011;33950;48.154;16.316;2022-07-18T08:57:05;9.32;;;1.75;;
48161;SDS011;33950;48.154;16.316;2022-07-18T08:59:31;10.13;;;1.40;;
48161;SDS011;33950;48.154;16.316;2022-07-18T09:01:58;7.65;;;1.30;;
48161;SDS011;33950;48.154;16.316;2022-07-18T09:04:31;3.83;;;1.40;;
48161;SDS011;33950;48.154;16.316;2022-07-18T09:06:57;6.93;;;1.45;;
48161;SDS011;33950;48.154;16.316;2022-07-18T09:09:24;5.80;;;1.33;;
48161;SDS011;33950;48.154;16.316;2022-07-18T09:11:50;4.72;;;1.05;;
48161;SDS011;33950;48.154;16.316;2022-07-18T09:17:09;4.82;;;1.35;;
48161;SDS011;33950;48.154;16.316;2022-07-18T09:19:38;4.75;;;1.70;;
48161;SDS011;33950;48.154;16.316;2022-07-18T09:22:11;11.23;;;2.00;;
48161;SDS011;33950;48.154;16.316;2022-07-18T09:24:52;8.23;;;1.52;;
48161;SDS011;33950;48.154;16.316;2022-07-18T09:27:24;9.95;;;1.60;;
48161;SDS011;33950;48.154;16.316;2022-07-18T09:32:49;5.32;;;1.52;;
48161;SDS011;33950;48.154;16.316;2022-07-18T09:35:17;4.22;;;1.60;;
48161;SDS011;33950;48.154;16.316;2022-07-18T09:37:54;9.48;;;1.83;;
48161;SDS011;33950;48.154;16.316;2022-07-18T09:40:22;4.32;;;1.42;;
48161;SDS011;33950;48.154;16.316;2022-07-18T09:42:50;7.80;;;1.52;;
48161;SDS011;33950;48.154;16.316;2022-07-18T09:45:20;7.00;;;1.30;;
48161;SDS011;33950;48.154;16.316;2022-07-18T09:47:49;6.80;;;1.25;;
48161;SDS011;33950;48.154;16.316;2022-07-18T09:50:21;8.40;;;1.10;;
48161;SDS011;33950;48.154;16.316;2022-07-18T09:52:59;4.88;;;1.58;;
48161;SDS011;33950;48.154;16.316;2022-07-18T09:55:27;6.38;;;1.58;;
48161;SDS011;33950;48.154;16.316;2022-07-18T09:57:56;4.25;;;1.13;;
48161;SDS011;33950;48.154;16.316;2022-07-18T10:00:24;8.45;;;1.92;;
48161;SDS011;33950;48.154;16.316;2022-07-18T10:02:51;5.75;;;1.63;;
48161;SDS011;33950;48.154;16.316;2022-07-18T10:05:17;3.95;;;1.45;;
48161;SDS011;33950;48.154;16.316;2022-07-18T10:07:43;5.43;;;1.40;;
48161;SDS011;33950;48.154;16.316;2022-07-18T10:10:11;8.68;;;2.00;;
48161;SDS011;33950;48.154;16.316;2022-07-18T10:12:40;6.75;;;1.27;;
48161;SDS011;33950;48.154;16.316;2022-07-18T10:15:06;8.23;;;1.63;;
48161;SDS011;33950;48.154;16.316;2022-07-18T10:17:33;5.30;;;1.10;;
48161;SDS011;33950;48.154;16.316;2022-07-18T10:20:03;11.48;;;1.13;;
48161;SDS011;33950;48.154;16.316;2022-07-18T10:22:30;7.55;;;1.13;;
48161;SDS011;33950;48.154;16.316;2022-07-18T10:25:02;5.85;;;1.35;;
48161;SDS011;33950;48.154;16.316;2022-07-18T10:27:29;5.82;;;2.00;;
48161;SDS011;33950;48.154;16.316;2022-07-18T10:30:13;7.05;;;2.38;;
48161;SDS011;33950;48.154;16.316;2022-07-18T10:32:40;2.58;;;0.95;;
48161;SDS011;33950;48.154;16.316;2022-07-18T10:35:08;5.22;;;1.17;;
48161;SDS011;33950;48.154;16.316;2022-07-18T10:37:38;7.20;;;1.60;;
48161;SDS011;33950;48.154;16.316;2022-07-18T10:40:23;2.55;;;1.27;;
48161;SDS011;33950;48.154;16.316;2022-07-18T10:45:50;6.80;;;1.50;;
48161;SDS011;33950;48.154;16.316;2022-07-18T10:51:16;5.55;;;1.23;;
48161;SDS011;33950;48.154;16.316;2022-07-18T10:59:35;3.65;;;1.70;;
48161;SDS011;33950;48.154;16.316;2022-07-18T11:02:03;5.72;;;1.42;;
48161;SDS011;33950;48.154;16.316;2022-07-18T11:04:33;8.05;;;1.60;;
48161;SDS011;33950;48.154;16.316;2022-07-18T11:07:06;17.35;;;1.88;;
48161;SDS011;33950;48.154;16.316;2022-07-18T11:09:39;11.10;;;2.35;;
48161;SDS011;33950;48.154;16.316;2022-07-18T11:12:22;6.85;;;1.95;;
48161;SDS011;33950;48.154;16.316;2022-07-18T11:14:59;7.80;;;1.83;;
48161;SDS011;33950;48.154;16.316;2022-07-18T11:20:27;3.65;;;1.15;;
48161;SDS011;33950;48.154;16.316;2022-07-18T11:23:03;5.28;;;0.98;;
48161;SDS011;33950;48.154;16.316;2022-07-18T11:25:29;4.40;;;1.38;;
48161;SDS011;33950;48.154;16.316;2022-07-18T11:27:56;3.60;;;0.98;;
48161;SDS011;33950;48.154;16.316;2022-07-18T11:30:22;6.25;;;1.40;;
48161;SDS011;33950;48.154;16.316;2022-07-18T11:32:50;5.05;;;1.30;;
48161;SDS011;33950;48.154;16.316;2022-07-18T11:35:20;7.80;;;1.63;;
48161;SDS011;33950;48.154;16.316;2022-07-18T11:37:47;5.00;;;1.60;;
48161;SDS011;33950;48.154;16.316;2022-07-18T11:40:15;9.77;;;2.28;;
48161;SDS011;33950;48.154;16.316;2022-07-18T11:42:42;18.10;;;1.63;;
48161;SDS011;33950;48.154;16.316;2022-07-18T11:45:09;5.05;;;2.35;;
48161;SDS011;33950;48.154;16.316;2022-07-18T11:47:38;3.58;;;1.15;;
48161;SDS011;33950;48.154;16.316;2022-07-18T11:50:04;7.75;;;1.65;;
48161;SDS011;33950;48.154;16.316;2022-07-18T11:52:31;6.18;;;1.30;;
48161;SDS011;33950;48.154;16.316;2022-07-18T11:54:58;3.55;;;1.20;;
48161;SDS011;33950;48.154;16.316;2022-07-18T11:57:27;4.70;;;1.33;;
48161;SDS011;33950;48.154;16.316;2022-07-18T11:59:53;2.85;;;1.35;;
48161;SDS011;33950;48.154;16.316;2022-07-18T12:05:29;5.90;;;1.50;;
48161;SDS011;33950;48.154;16.316;2022-07-18T12:07:55;7.68;;;1.40;;
48161;SDS011;33950;48.154;16.316;2022-07-18T12:10:21;10.10;;;1.63;;
48161;SDS011;33950;48.154;16.316;2022-07-18T12:12:49;14.35;;;1.52;;
48161;SDS011;33950;48.154;16.316;2022-07-18T12:15:15;5.50;;;1.38;;
48161;SDS011;33950;48.154;16.316;2022-07-18T12:17:44;9.20;;;2.25;;
48161;SDS011;33950;48.154;16.316;2022-07-18T12:20:12;3.33;;;1.17;;
48161;SDS011;33950;48.154;16.316;2022-07-18T12:25:37;4.97;;;1.20;;
48161;SDS011;33950;48.154;16.316;2022-07-18T12:28:15;5.68;;;0.93;;
48161;SDS011;33950;48.154;16.316;2022-07-18T12:30:42;4.85;;;1.33;;
48161;SDS011;33950;48.154;16.316;2022-07-18T12:33:08;5.25;;;1.58;;
48161;SDS011;33950;48.154;16.316;2022-07-18T12:35:34;7.00;;;1.88;;
48161;SDS011;33950;48.154;16.316;2022-07-18T12:38:02;6.13;;;1.33;;
48161;SDS011;33950;48.154;16.316;2022-07-18T12:40:38;6.43;;;2.15;;
48161;SDS011;33950;48.154;16.316;2022-07-18T12:43:06;7.28;;;1.85;;
48161;SDS011;33950;48.154;16.316;2022-07-18T12:45:34;13.38;;;1.40;;
48161;SDS011;33950;48.154;16.316;2022-07-18T12:48:00;7.40;;;1.50;;
48161;SDS011;33950;48.154;16.316;2022-07-18T12:50:26;9.43;;;1.30;;
48161;SDS011;33950;48.154;16.316;2022-07-18T12:52:52;1.23;;;1.05;;
48161;SDS011;33950;48.154;16.316;2022-07-18T12:55:18;3.80;;;1.23;;
48161;SDS011;33950;48.154;16.316;2022-07-18T12:57:44;3.60;;;1.30;;
48161;SDS011;33950;48.154;16.316;2022-07-18T13:00:11;4.97;;;1.50;;
48161;SDS011;33950;48.154;16.316;2022-07-18T13:02:38;8.02;;;1.42;;
48161;SDS011;33950;48.154;16.316;2022-07-18T13:05:04;5.28;;;1.35;;
48161;SDS011;33950;48.154;16.316;2022-07-18T13:07:31;5.88;;;2.33;;
48161;SDS011;33950;48.154;16.316;2022-07-18T13:09:56;6.53;;;3.33;;
48161;SDS011;33950;48.154;16.316;2022-07-18T13:12:22;2.38;;;1.10;;
48161;SDS011;33950;48.154;16.316;2022-07-18T13:14:48;2.30;;;0.95;;
48161;SDS011;33950;48.154;16.316;2022-07-18T13:17:14;6.22;;;1.20;;
48161;SDS011;33950;48.154;16.316;2022-07-18T13:19:41;4.25;;;2.00;;
48161;SDS011;33950;48.154;16.316;2022-07-18T13:22:06;3.25;;;1.15;;
48161;SDS011;33950;48.154;16.316;2022-07-18T13:24:32;5.65;;;1.48;;
48161;SDS011;33950;48.154;16.316;2022-07-18T13:26:58;3.15;;;0.93;;
48161;SDS011;33950;48.154;16.316;2022-07-18T13:29:24;12.60;;;1.50;;
48161;SDS011;33950;48.154;16.316;2022-07-18T13:31:49;11.38;;;1.50;;
48161;SDS011;33950;48.154;16.316;2022-07-18T13:34:16;5.03;;;1.23;;
48161;SDS011;33950;48.154;16.316;2022-07-18T13:36:47;2.63;;;0.90;;
48161;SDS011;33950;48.154;16.316;2022-07-18T13:39:14;13.68;;;1.95;;
48161;SDS011;33950;48.154;16.316;2022-07-18T13:41:39;3.47;;;1.42;;
48161;SDS011;33950;48.154;16.316;2022-07-18T13:44:05;1.88;;;0.80;;
48161;SDS011;33950;48.154;16.316;2022-07-18T13:46:31;7.13;;;1.33;;
48161;SDS011;33950;48.154;16.316;2022-07-18T13:48:57;12.70;;;1.65;;
48161;SDS011;33950;48.154;16.316;2022-07-18T13:51:23;4.07;;;1.42;;
48161;SDS011;33950;48.154;16.316;2022-07-18T13:53:50;5.07;;;1.30;;
48161;SDS011;33950;48.154;16.316;2022-07-18T13:56:16;2.08;;;1.10;;
48161;SDS011;33950;48.154;16.316;2022-07-18T13:58:41;7.43;;;1.60;;
48161;SDS011;33950;48.154;16.316;2022-07-18T14:01:07;4.18;;;1.10;;
48161;SDS011;33950;48.154;16.316;2022-07-18T14:03:33;5.18;;;1.05;;
48161;SDS011;33950;48.154;16.316;2022-07-18T14:05:59;3.33;;;1.10;;
48161;SDS011;33950;48.154;16.316;2022-07-18T14:08:25;4.00;;;1.00;;
48161;SDS011;33950;48.154;16.316;2022-07-18T14:10:52;3.13;;;0.90;;
48161;SDS011;33950;48.154;16.316;2022-07-18T14:13:18;5.00;;;1.00;;
48161;SDS011;33950;48.154;16.316;2022-07-18T14:15:43;8.75;;;1.08;;
48161;SDS011;33950;48.154;16.316;2022-07-18T14:18:09;11.30;;;1.75;;
48161;SDS011;33950;48.154;16.316;2022-07-18T14:20:35;3.17;;;1.20;;
48161;SDS011;33950;48.154;16.316;2022-07-18T14:23:01;4.65;;;1.17;;
48161;SDS011;33950;48.154;16.316;2022-07-18T14:25:26;2.83;;;1.00;;
48161;SDS011;33950;48.154;16.316;2022-07-18T14:27:54;3.85;;;0.98;;
48161;SDS011;33950;48.154;16.316;2022-07-18T14:30:19;1.73;;;1.05;;
48161;SDS011;33950;48.154;16.316;2022-07-18T14:32:45;7.90;;;0.85;;
48161;SDS011;33950;48.154;16.316;2022-07-18T14:35:11;4.00;;;1.00;;
48161;SDS011;33950;48.154;16.316;2022-07-18T14:37:37;1.58;;;0.93;;
48161;SDS011;33950;48.154;16.316;2022-07-18T14:40:03;3.90;;;0.85;;
48161;SDS011;33950;48.154;16.316;2022-07-18T14:42:30;5.47;;;1.05;;
48161;SDS011;33950;48.154;16.316;2022-07-18T14:44:57;3.78;;;0.80;;
48161;SDS011;33950;48.154;16.316;2022-07-18T14:47:23;7.03;;;1.05;;
48161;SDS011;33950;48.154;16.316;2022-07-18T14:49:49;2.67;;;0.65;;
48161;SDS011;33950;48.154;16.316;2022-07-18T14:52:15;4.07;;;0.80;;
48161;SDS011;33950;48.154;16.316;2022-07-18T14:54:40;6.60;;;0.88;;
48161;SDS011;33950;48.154;16.316;2022-07-18T14:57:06;4.68;;;0.75;;
48161;SDS011;33950;48.154;16.316;2022-07-18T14:59:33;1.10;;;0.98;;
48161;SDS011;33950;48.154;16.316;2022-07-18T15:02:00;1.88;;;0.95;;